Time;durP1;ratioP1;P1;durP2;ratioP2;P2;SDS_P1;SDS_P2;PMS_P1;PMS_P2;Temp;Humidity;BMP_temperature;BMP_pressure;BME280_temperature;BME280_humidity;BME280_pressure;Samples;Min_cycle;Max_cycle;Signal;HPM_P1;HPM_P2
2022/03/28 00:00:14;;;;;;;;;;;;;;;-145.06;0.00;60892.56;4688181;29;19920;-88
2022/03/28 00:02:53;;;;;;;;;;;;;;;-145.06;0.00;60892.56;4689317;29;20263;-88
2022/03/28 00:05:32;;;;;;;;;;;;;;;-145.06;0.00;60892.56;4688312;29;19916;-88
2022/03/28 00:08:11;;;;;;;;;;;;;;;9.35;0.00;60892.56;4692184;29;19925;-88
2022/03/28 00:10:50;;;;;;;;;;;;;;;9.33;0.00;60892.56;4689037;29;20366;-88
2022/03/28 00:13:29;;;;;;;;;;;;;;;9.31;0.00;60892.56;4691171;29;19916;-88
2022/03/28 00:16:08;;;;;;;;;;;;;;;9.29;0.00;60892.56;4689356;29;19955;-89
2022/03/28 00:18:48;;;;;;;;;;;;;;;9.25;0.00;60892.56;4689988;29;19920;-88
2022/03/28 00:21:26;;;;;;;;;;;;;;;9.23;0.00;60892.56;4689757;29;19916;-88
2022/03/28 00:24:05;;;;;;;;;;;;;;;9.21;0.00;60892.56;4689013;29;19920;-88
2022/03/28 00:26:44;;;;;;;;;;;;;;;9.17;0.00;60892.56;4685247;29;19916;-88
2022/03/28 00:29:23;;;;;;;;;;;;;;;9.15;0.00;60892.56;4689080;29;19920;-87
2022/03/28 00:32:02;;;;;;;;;;;;;;;9.11;0.00;60892.56;4690344;29;19916;-88
2022/03/28 00:34:41;;;;;;;;;;;;;;;9.09;0.00;60892.56;4672754;29;20596;-88
2022/03/28 00:37:20;;;;;;;;;;;;;;;9.08;0.00;60892.56;4689229;29;19920;-88
2022/03/28 00:39:59;;;;;;;;;;;;;;;-145.06;0.00;60892.56;4689623;29;19916;-88
2022/03/28 00:42:38;;;;;;;;;;;;;;;-145.06;0.00;60892.56;4690098;29;19959;-88
2022/03/28 00:45:19;;;;;;;;;;;;;;;-145.06;0.00;60892.56;4691657;29;19920;-88
2022/03/28 00:47:58;;;;;;;;;;;;;;;-145.06;0.00;60892.56;4686788;29;19924;-88
2022/03/28 00:50:37;;;;;;;;;;;;;;;-145.06;0.00;60892.56;4695564;29;19955;-88
2022/03/28 00:53:16;;;;;;;;;;;;;;;-145.06;0.00;60892.56;4690053;29;20668;-88
2022/03/28 00:55:55;;;;;;;;;;;;;;;-145.06;0.00;60892.56;4688380;29;19915;-88
2022/03/28 00:58:34;;;;;;;;;;;;;;;-145.06;0.00;60892.56;4696411;29;19916;-88
2022/03/28 01:01:14;;;;;;;;;;;;;;;-145.06;0.00;60892.56;4687795;29;19916;-89
2022/03/28 01:03:53;;;;;;;;;;;;;;;-145.06;0.00;60892.56;4698606;29;19920;-88
2022/03/28 01:06:32;;;;;;;;;;;;;;;-145.06;0.00;60892.56;4688756;29;19916;-88
2022/03/28 01:09:11;;;;;;;;;;;;;;;-145.06;0.00;60892.56;4696577;29;19925;-88
2022/03/28 01:11:51;;;;;;;;;;;;;;;-145.06;0.00;60892.56;4694503;29;19955;-86
2022/03/28 01:14:31;;;;;;;;;;;;;;;-145.06;0.00;60892.56;4687694;29;19920;-88
2022/03/28 01:20:09;;;;;;;;;;;;;;;-145.06;0.00;60892.56;4694946;29;20014;-87
2022/03/28 01:22:47;;;;;;;;;;;;;;;-145.06;0.00;60892.56;4684719;29;19916;-88
2022/03/28 01:25:29;;;;;;;;;;;;;;;-145.06;0.00;60892.56;4688798;29;19916;-88
2022/03/28 01:28:09;;;;;;;;;;;;;;;-145.06;0.00;60892.56;4688688;29;20272;-88
2022/03/28 01:30:48;;;;;;;;;;;;;;;-145.06;0.00;60892.56;4687015;29;19920;-87
2022/03/28 01:33:27;;;;;;;;;;;;;;;-145.06;0.00;60892.56;4681595;29;19916;-88
2022/03/28 01:36:06;;;;;;;;;;;;;;;-145.06;0.00;60892.56;4686692;29;19916;-88
2022/03/28 01:38:45;;;;;;;;;;;;;;;-145.06;0.00;60892.56;4684648;29;20363;-88
2022/03/28 01:41:24;;;;;;;;;;;;;;;-145.06;0.00;60892.56;4687693;29;19920;-88
2022/03/28 01:44:05;;;;;;;;;;;;;;;-145.06;0.00;60892.56;4690051;29;19920;-87
2022/03/28 01:46:45;;;;;;;;;;;;;;;-145.06;0.00;60892.56;4691557;29;19916;-88
2022/03/28 01:49:24;;;;;;;;;;;;;;;-145.06;0.00;60892.56;4692916;29;19916;-88
2022/03/28 01:52:03;;;;;;;;;;;;;;;-145.06;0.00;60892.56;4687845;29;19920;-87
2022/03/28 01:54:41;;;;;;;;;;;;;;;-145.06;0.00;60892.56;4704833;29;20392;-87
2022/03/28 01:57:20;;;;;;;;;;;;;;;-145.06;0.00;60892.56;4691832;29;19916;-87
2022/03/28 01:59:59;;;;;;;;;;;;;;;-145.06;0.00;60892.56;4690440;29;19916;-88
2022/03/28 02:02:38;;;;;;;;;;;;;;;-145.06;0.00;60892.56;4689095;29;19912;-87
2022/03/28 02:05:18;;;;;;;;;;;;;;;-145.06;0.00;60892.56;4688903;29;19951;-87
2022/03/28 02:07:57;;;;;;;;;;;;;;;-145.06;0.00;60892.56;4690041;29;19924;-88
2022/03/28 02:10:36;;;;;;;;;;;;;;;-145.06;0.00;60892.56;4699165;29;19963;-87
2022/03/28 02:13:14;;;;;;;;;;;;;;;-145.06;0.00;60892.56;4705230;29;19944;-88
2022/03/28 02:15:54;;;;;;;;;;;;;;;-145.06;0.00;60892.56;4716947;29;19920;-86
2022/03/28 02:18:32;;;;;;;;;;;;;;;-145.06;0.00;60892.56;4691857;29;20359;-88
2022/03/28 02:21:11;;;;;;;;;;;;;;;-145.06;0.00;60892.56;4684931;29;19920;-88
2022/03/28 02:23:50;;;;;;;;;;;;;;;-145.06;0.00;60892.56;4688861;29;19919;-88
2022/03/28 02:26:29;;;;;;;;;;;;;;;-145.06;0.00;60892.56;4689877;29;19920;-87
2022/03/28 02:29:08;;;;;;;;;;;;;;;-145.06;0.00;60892.56;4689715;29;19916;-88
2022/03/28 02:31:47;;;;;;;;;;;;;;;-145.06;0.00;60892.56;4694978;29;19924;-88
2022/03/28 02:34:26;;;;;;;;;;;;;;;-145.06;0.00;60892.56;4687915;29;19915;-87
2022/03/28 02:37:05;;;;;;;;;;;;;;;-145.06;0.00;60892.56;4690395;29;19920;-88
2022/03/28 02:39:44;;;;;;;;;;;;;;;-145.06;0.00;60892.56;4690427;29;19924;-88
2022/03/28 02:42:23;;;;;;;;;;;;;;;-145.06;0.00;60892.56;4682766;29;20259;-88
2022/03/28 02:45:02;;;;;;;;;;;;;;;-145.06;0.00;60892.56;4690088;29;19924;-89
2022/03/28 02:47:41;;;;;;;;;;;;;;;-145.06;0.00;60892.56;4690097;29;20386;-87
2022/03/28 02:50:20;;;;;;;;;;;;;;;-145.06;0.00;60892.56;4674207;29;19920;-87
2022/03/28 02:52:59;;;;;;;;;;;;;;;-145.06;0.00;60892.56;4684228;29;19916;-87
2022/03/28 02:55:38;;;;;;;;;;;;;;;-145.06;0.00;60892.56;4697217;29;19916;-88
2022/03/28 02:58:18;;;;;;;;;;;;;;;-145.06;0.00;60892.56;4688810;29;19924;-88
2022/03/28 03:00:57;;;;;;;;;;;;;;;-145.06;0.00;60892.56;4686806;29;19924;-88
2022/03/28 03:03:36;;;;;;;;;;;;;;;-145.06;0.00;60892.56;4689792;29;19924;-88
2022/03/28 03:06:15;;;;;;;;;;;;;;;-145.06;0.00;60892.56;4688070;29;19917;-87
2022/03/28 03:08:54;;;;;;;;;;;;;;;-145.06;0.00;60892.56;4686970;29;19916;-87
2022/03/28 03:11:32;;;;;;;;;;;;;;;-145.06;0.00;60892.56;4689528;29;19916;-87
2022/03/28 03:14:11;;;;;;;;;;;;;;;-145.06;0.00;60892.56;4689937;29;19924;-87
2022/03/28 03:16:51;;;;;;;;;;;;;;;-145.06;0.00;60892.56;4694209;29;19919;-87
2022/03/28 03:19:29;;;;;;;;;;;;;;;-145.06;0.00;60892.56;4695924;29;20293;-88
2022/03/28 03:22:08;;;;;;;;;;;;;;;-145.06;0.00;60892.56;4689503;29;19916;-87
2022/03/28 03:24:47;;;;;;;;;;;;;;;-145.06;0.00;60892.56;4688837;29;19924;-87
2022/03/28 03:27:26;;;;;;;;;;;;;;;-145.06;0.00;60892.56;4686342;29;19916;-88
2022/03/28 03:30:06;;;;;;;;;;;;;;;-145.06;0.00;60892.56;4688477;29;19920;-88
2022/03/28 03:32:45;;;;;;;;;;;;;;;-145.06;0.00;60892.56;4695640;29;19916;-87
2022/03/28 03:35:24;;;;;;;;;;;;;;;-145.06;0.00;60892.56;4687782;29;20006;-88
2022/03/28 03:38:03;;;;;;;;;;;;;;;-145.06;0.00;60892.56;4681580;29;19920;-88
2022/03/28 03:40:42;;;;;;;;;;;;;;;-145.06;0.00;60892.56;4684684;29;20483;-87
2022/03/28 03:43:27;;;;;;;;;;;;;;;-145.06;0.00;60892.56;4684753;29;19920;-88
2022/03/28 03:46:06;;;;;;;;;;;;;;;-145.06;0.00;60892.56;4681500;29;21883;-88
2022/03/28 03:48:45;;;;;;;;;;;;;;;-145.06;0.00;60892.56;4686783;29;19920;-87
2022/03/28 03:51:24;;;;;;;;;;;;;;;-145.06;0.00;60892.56;4687894;29;19919;-88
2022/03/28 03:54:03;;;;;;;;;;;;;;;-145.06;0.00;60892.56;4687949;29;20450;-88
2022/03/28 03:56:42;;;;;;;;;;;;;;;-145.06;0.00;60892.56;4682621;29;19916;-87
2022/03/28 03:59:21;;;;;;;;;;;;;;;-145.06;0.00;60892.56;4693497;29;19963;-88
2022/03/28 04:02:00;;;;;;;;;;;;;;;-145.06;0.00;60892.56;4681989;29;19917;-88
2022/03/28 04:04:39;;;;;;;;;;;;;;;-145.06;0.00;60892.56;4688417;29;20259;-88
2022/03/28 04:07:18;;;;;;;;;;;;;;;-145.06;0.00;60892.56;4695745;29;20359;-88
2022/03/28 04:10:02;;;;;;;;;;;;;;;-145.06;0.00;60892.56;4688648;29;20239;-87
2022/03/28 04:12:41;;;;;;;;;;;;;;;-145.06;0.00;60892.56;4688813;29;20371;-87
2022/03/28 04:15:20;;;;;;;;;;;;;;;-145.06;0.00;60892.56;4685514;29;19912;-86
2022/03/28 04:17:59;;;;;;;;;;;;;;;-145.06;0.00;60892.56;4691656;29;19916;-87
2022/03/28 04:20:38;;;;;;;;;;;;;;;-145.06;0.00;60892.56;4679670;29;19915;-88
2022/03/28 04:23:17;;;;;;;;;;;;;;;-145.06;0.00;60892.56;4693972;29;19927;-88
2022/03/28 04:25:56;;;;;;;;;;;;;;;-145.06;0.00;60892.56;4689553;29;20264;-87
2022/03/28 04:28:37;;;;;;;;;;;;;;;-145.06;0.00;60892.56;4671828;29;19917;-87
2022/03/28 04:31:16;;;;;;;;;;;;;;;-145.06;0.00;60892.56;4684385;29;20608;-88
2022/03/28 04:33:55;;;;;;;;;;;;;;;-145.06;0.00;60892.56;4688670;29;20383;-87
2022/03/28 04:36:34;;;;;;;;;;;;;;;-145.06;0.00;60892.56;4689636;29;19916;-87
2022/03/28 04:39:13;;;;;;;;;;;;;;;-145.06;0.00;60892.56;4687037;29;20015;-88
2022/03/28 04:41:51;;;;;;;;;;;;;;;-145.06;0.00;60892.56;4688227;29;20284;-87
2022/03/28 04:44:30;;;;;;;;;;;;;;;-145.06;0.00;60892.56;4687352;29;19920;-88
2022/03/28 04:47:09;;;;;;;;;;;;;;;-145.06;0.00;60892.56;4686225;29;19955;-88
2022/03/28 04:49:48;;;;;;;;;;;;;;;-145.06;0.00;60892.56;4687806;29;19916;-88
2022/03/28 04:52:27;;;;;;;;;;;;;;;-145.06;0.00;60892.56;4688144;29;19951;-88
2022/03/28 04:55:06;;;;;;;;;;;;;;;-145.06;0.00;60892.56;4689008;29;19955;-87
2022/03/28 04:57:45;;;;;;;;;;;;;;;-145.06;0.00;60892.56;4692652;29;19916;-88
2022/03/28 05:00:24;;;;;;;;;;;;;;;-145.06;0.00;60892.56;4688756;29;19920;-88
2022/03/28 05:03:03;;;;;;;;;;;;;;;-145.06;0.00;60892.56;4690071;29;19916;-88
2022/03/28 05:05:42;;;;;;;;;;;;;;;-145.06;0.00;60892.56;4687720;29;19916;-88
2022/03/28 05:08:21;;;;;;;;;;;;;;;-145.06;0.00;60892.56;4691036;29;19920;-88
2022/03/28 05:11:00;;;;;;;;;;;;;;;-145.06;0.00;60892.56;4708386;29;19912;-88
2022/03/28 05:13:39;;;;;;;;;;;;;;;-145.06;0.00;60892.56;4703854;29;19924;-87
2022/03/28 05:16:18;;;;;;;;;;;;;;;-145.06;0.00;60892.56;4687898;29;20370;-87
2022/03/28 05:18:57;;;;;;;;;;;;;;;-145.06;0.00;60892.56;4688910;29;19923;-88
2022/03/28 05:21:36;;;;;;;;;;;;;;;-145.06;0.00;60892.56;4686835;29;20360;-88
2022/03/28 05:24:15;;;;;;;;;;;;;;;-145.06;0.00;60892.56;4691611;29;19998;-88
2022/03/28 05:26:54;;;;;;;;;;;;;;;-145.06;0.00;60892.56;4688654;29;19920;-89
2022/03/28 05:29:33;;;;;;;;;;;;;;;-145.06;0.00;60892.56;4696102;29;19916;-87
2022/03/28 05:32:12;;;;;;;;;;;;;;;-145.06;0.00;60892.56;4691781;29;19924;-89
2022/03/28 05:34:51;;;;;;;;;;;;;;;-145.06;0.00;60892.56;4695590;29;20625;-87
2022/03/28 05:37:30;;;;;;;;;;;;;;;-145.06;0.00;60892.56;4693264;29;19916;-88
2022/03/28 05:40:13;;;;;;;;;;;;;;;-145.06;0.00;60892.56;4688733;29;19915;-89
2022/03/28 05:42:52;;;;;;;;;;;;;;;-145.06;0.00;60892.56;4688815;29;19920;-89
2022/03/28 05:45:31;;;;;;;;;;;;;;;-145.06;0.00;60892.56;4696576;29;19920;-89
2022/03/28 05:48:10;;;;;;;;;;;;;;;-145.06;0.00;60892.56;4698320;29;19920;-90
2022/03/28 05:50:49;;;;;;;;;;;;;;;-145.06;0.00;60892.56;4690873;29;20089;-89
2022/03/28 05:53:28;;;;;;;;;;;;;;;-145.06;0.00;60892.56;4686832;29;20272;-89
2022/03/28 05:56:07;;;;;;;;;;;;;;;-145.06;0.00;60892.56;4690486;29;19916;-89
2022/03/28 05:58:51;;;;;;;;;;;;;;;-145.06;0.00;60892.56;4692472;29;19921;-88
2022/03/28 06:01:30;;;;;;;;;;;;;;;-145.06;0.00;60892.56;4694390;29;20275;-88
2022/03/28 06:04:09;;;;;;;;;;;;;;;-145.06;0.00;60892.56;4691058;29;19975;-89
2022/03/28 06:06:49;;;;;;;;;;;;;;;-145.06;0.00;60892.56;4689220;29;19920;-89
2022/03/28 06:09:28;;;;;;;;;;;;;;;-145.06;0.00;60892.56;4688479;29;20012;-89
2022/03/28 06:12:08;;;;;;;;;;;;;;;-145.06;0.00;60892.56;4690310;29;19920;-89
2022/03/28 06:14:47;;;;;;;;;;;;;;;-145.06;0.00;60892.56;4692374;29;20264;-88
2022/03/28 06:17:26;;;;;;;;;;;;;;;-145.06;0.00;60892.56;4683808;29;19995;-89
2022/03/28 06:20:05;;;;;;;;;;;;;;;-145.06;0.00;60892.56;4685215;29;20311;-88
2022/03/28 06:22:44;;;;;;;;;;;;;;;-145.06;0.00;60892.56;4695443;29;20006;-89
2022/03/28 06:25:23;;;;;;;;;;;;;;;-145.06;0.00;60892.56;4690401;29;19920;-88
2022/03/28 06:28:02;;;;;;;;;;;;;;;-145.06;0.00;60892.56;4685425;29;19920;-87
2022/03/28 06:30:41;;;;;;;;;;;;;;;-145.06;0.00;60892.56;4688803;29;19924;-88
2022/03/28 06:33:20;;;;;;;;;;;;;;;-145.06;0.00;60892.56;4679019;29;20019;-89
2022/03/28 06:35:59;;;;;;;;;;;;;;;-145.06;0.00;60892.56;4691532;29;19915;-88
2022/03/28 06:38:38;;;;;;;;;;;;;;;-145.06;0.00;60892.56;4701443;29;19915;-88
2022/03/28 06:41:17;;;;;;;;;;;;;;;-145.06;0.00;60892.56;4687026;29;19925;-89
2022/03/28 06:43:56;;;;;;;;;;;;;;;-145.06;0.00;60892.56;4680246;29;19968;-89
2022/03/28 06:46:35;;;;;;;;;;;;;;;-145.06;0.00;60892.56;4686732;29;19912;-89
2022/03/28 06:49:14;;;;;;;;;;;;;;;-145.06;0.00;60892.56;4698337;29;19915;-88
2022/03/28 06:51:53;;;;;;;;;;;;;;;-145.06;0.00;60892.56;4689475;29;19952;-88
2022/03/28 06:54:33;;;;;;;;;;;;;;;-145.06;0.00;60892.56;4698427;29;19916;-88
2022/03/28 06:57:12;;;;;;;;;;;;;;;-145.06;0.00;60892.56;4688180;29;19920;-88
2022/03/28 06:59:53;;;;;;;;;;;;;;;-145.06;0.00;60892.56;4688100;29;19923;-88
2022/03/28 07:02:31;;;;;;;;;;;;;;;-145.06;0.00;60892.56;4697372;29;19920;-89
2022/03/28 07:05:10;;;;;;;;;;;;;;;-145.06;0.00;60892.56;4688879;29;19920;-88
2022/03/28 07:07:50;;;;;;;;;;;;;;;-145.06;0.00;60892.56;4701122;29;19916;-88
2022/03/28 07:10:28;;;;;;;;;;;;;;;-145.06;0.00;60892.56;4686814;29;19912;-88
2022/03/28 07:13:07;;;;;;;;;;;;;;;-145.06;0.00;60892.56;4688881;29;19912;-89
2022/03/28 07:15:46;;;;;;;;;;;;;;;-145.06;0.00;60892.56;4692375;29;19912;-88
2022/03/28 07:18:25;;;;;;;;;;;;;;;-145.06;0.00;60892.56;4695899;29;19919;-88
2022/03/28 07:21:04;;;;;;;;;;;;;;;-145.06;0.00;60892.56;4689258;29;19916;-87
2022/03/28 07:23:43;;;;;;;;;;;;;;;-145.06;0.00;60892.56;4689839;29;19920;-88
2022/03/28 07:26:23;;;;;;;;;;;;;;;-145.06;0.00;60892.56;4695294;29;20565;-88
2022/03/28 07:29:03;;;;;;;;;;;;;;;-145.06;0.00;60892.56;4683880;29;20363;-87
2022/03/28 07:31:42;;;;;;;;;;;;;;;-145.06;0.00;60892.56;4698531;29;19999;-88
2022/03/28 07:34:30;;;;;;;;;;;;;;;-145.06;0.00;60892.56;4686515;29;20034;-89
2022/03/28 07:37:13;;;;;;;;;;;;;;;-145.06;0.00;60892.56;4687132;29;19912;-88
2022/03/28 07:39:52;;;;;;;;;;;;;;;-145.06;0.00;60892.56;4701201;29;20342;-88
2022/03/28 07:42:33;;;;;;;;;;;;;;;-145.06;0.00;60892.56;4689251;29;19912;-88
2022/03/28 07:45:14;;;;;;;;;;;;;;;-145.06;0.00;60892.56;4692892;29;20422;-88
2022/03/28 07:47:53;;;;;;;;;;;;;;;-145.06;0.00;60892.56;4689485;29;19916;-88
2022/03/28 07:50:32;;;;;;;;;;;;;;;-145.06;0.00;60892.56;4697316;29;19959;-88
2022/03/28 07:53:11;;;;;;;;;;;;;;;-145.06;0.00;60892.56;4689030;29;19916;-89
2022/03/28 07:55:50;;;;;;;;;;;;;;;-145.06;0.00;60892.56;4683417;29;19916;-88
2022/03/28 07:58:29;;;;;;;;;;;;;;;-145.06;0.00;60892.56;4692904;29;19912;-88
2022/03/28 08:01:08;;;;;;;;;;;;;;;-145.06;0.00;60892.56;4701948;29;19916;-89
2022/03/28 08:03:48;;;;;;;;;;;;;;;-145.06;0.00;60892.56;4709457;29;19920;-89
2022/03/28 08:06:27;;;;;;;;;;;;;;;-145.06;0.00;60892.56;4704115;29;19912;-89
2022/03/28 08:09:06;;;;;;;;;;;;;;;-145.06;0.00;60892.56;4714673;29;19908;-90
2022/03/28 08:11:45;;;;;;;;;;;;;;;-145.06;0.00;60892.56;4685331;29;19920;-88
2022/03/28 08:14:23;;;;;;;;;;;;;;;-145.06;0.00;60892.56;4689147;29;19999;-88
2022/03/28 08:17:04;;;;;;;;;;;;;;;-145.06;0.00;60892.56;4692822;29;19924;-88
2022/03/28 08:19:42;;;;;;;;;;;;;;;-145.06;0.00;60892.56;4689407;29;19991;-88
2022/03/28 08:22:21;;;;;;;;;;;;;;;-145.06;0.00;60892.56;4696150;29;19916;-89
2022/03/28 08:25:00;;;;;;;;;;;;;;;-145.06;0.00;60892.56;4689676;29;19916;-89
2022/03/28 08:27:41;;;;;;;;;;;;;;;-145.06;0.00;60892.56;4688592;29;19917;-89
2022/03/28 08:30:20;;;;;;;;;;;;;;;-145.06;0.00;60892.56;4694974;29;19919;-89
2022/03/28 08:32:59;;;;;;;;;;;;;;;-145.06;0.00;60892.56;4701530;29;19912;-90
2022/03/28 08:35:42;;;;;;;;;;;;;;;-145.06;0.00;60892.56;4685266;29;19981;-89
2022/03/28 08:38:21;;;;;;;;;;;;;;;-145.06;0.00;60892.56;4684308;29;19916;-90
2022/03/28 08:41:01;;;;;;;;;;;;;;;-145.06;0.00;60892.56;4696401;29;19915;-90
2022/03/28 08:43:40;;;;;;;;;;;;;;;-145.06;0.00;60892.56;4689404;29;20367;-89
2022/03/28 08:46:19;;;;;;;;;;;;;;;-145.06;0.00;60892.56;4689864;29;20363;-88
2022/03/28 08:48:59;;;;;;;;;;;;;;;-145.06;0.00;60892.56;4688970;29;19912;-89
2022/03/28 08:51:38;;;;;;;;;;;;;;;-145.06;0.00;60892.56;4684580;29;19912;-90
2022/03/28 08:54:17;;;;;;;;;;;;;;;-145.06;0.00;60892.56;4691840;29;20363;-89
2022/03/28 08:56:56;;;;;;;;;;;;;;;-145.06;0.00;60892.56;4693113;29;19912;-89
2022/03/28 08:59:35;;;;;;;;;;;;;;;-145.06;0.00;60892.56;4678231;29;19916;-89
2022/03/28 09:02:33;;;;;;;;;;;;;;;-145.06;0.00;60892.56;4689693;29;19917;-89
2022/03/28 09:05:13;;;;;;;;;;;;;;;-145.06;0.00;60892.56;4681554;29;19928;-89
2022/03/28 09:07:52;;;;;;;;;;;;;;;-145.06;0.00;60892.56;4702154;29;19919;-89
2022/03/28 09:10:34;;;;;;;;;;;;;;;-145.06;0.00;60892.56;4690454;29;19916;-88
2022/03/28 09:13:16;;;;;;;;;;;;;;;-145.06;0.00;60892.56;4705226;29;20361;-90
2022/03/28 09:15:56;;;;;;;;;;;;;;;-145.06;0.00;60892.56;4688924;29;19912;-90
2022/03/28 09:18:35;;;;;;;;;;;;;;;-145.06;0.00;60892.56;4692803;29;19928;-90
2022/03/28 09:21:14;;;;;;;;;;;;;;;-145.06;0.00;60892.56;4691766;29;20010;-89
2022/03/28 09:23:54;;;;;;;;;;;;;;;-145.06;0.00;60892.56;4688138;29;19920;-88
2022/03/28 09:26:32;;;;;;;;;;;;;;;-145.06;0.00;60892.56;4692659;29;19915;-88
2022/03/28 09:29:11;;;;;;;;;;;;;;;-145.06;0.00;60892.56;4675880;29;20031;-89
2022/03/28 09:31:50;;;;;;;;;;;;;;;-145.06;0.00;60892.56;4685624;29;19913;-89
2022/03/28 09:34:29;;;;;;;;;;;;;;;-145.06;0.00;60892.56;4692422;29;19916;-89
2022/03/28 09:37:11;;;;;;;;;;;;;;;-145.06;0.00;60892.56;4687499;29;19955;-89
2022/03/28 09:39:50;;;;;;;;;;;;;;;-145.06;0.00;60892.56;4691562;29;19912;-90
2022/03/28 09:42:29;;;;;;;;;;;;;;;-145.06;0.00;60892.56;4678524;29;19917;-90
2022/03/28 09:45:17;;;;;;;;;;;;;;;-145.06;0.00;60892.56;4690199;29;19920;-89
2022/03/28 09:48:00;;;;;;;;;;;;;;;-145.06;0.00;60892.56;4699662;29;19920;-90
2022/03/28 09:50:40;;;;;;;;;;;;;;;-145.06;0.00;60892.56;4691045;29;19920;-89
2022/03/28 09:53:25;;;;;;;;;;;;;;;-145.06;0.00;60892.56;4691418;29;20359;-88
2022/03/28 09:56:04;;;;;;;;;;;;;;;-145.06;0.00;60892.56;4691327;29;19920;-90
2022/03/28 09:58:47;;;;;;;;;;;;;;;15.88;0.00;60892.56;4687257;29;19995;-89
2022/03/28 10:01:31;;;;;;;;;;;;;;;15.55;0.00;60892.56;4691801;29;19916;-89
2022/03/28 10:04:10;;;;;;;;;;;;;;;15.62;0.00;60892.56;4703144;29;19924;-89
2022/03/28 10:06:50;;;;;;;;;;;;;;;15.73;0.00;60892.56;4701673;29;19920;-89
2022/03/28 10:09:29;;;;;;;;;;;;;;;15.85;0.00;60892.56;4689215;29;20422;-89
2022/03/28 10:12:08;;;;;;;;;;;;;;;-145.06;0.00;60892.56;4694289;29;19912;-89
2022/03/28 10:14:53;;;;;;;;;;;;;;;-145.06;0.00;60892.56;4696857;29;19916;-89
2022/03/28 10:17:32;;;;;;;;;;;;;;;-145.06;0.00;60892.56;4702898;29;20002;-89
2022/03/28 10:20:11;;;;;;;;;;;;;;;-145.06;0.00;60892.56;4697778;29;19920;-89
2022/03/28 10:22:52;;;;;;;;;;;;;;;-145.06;0.00;60892.56;4699369;29;19912;-89
2022/03/28 10:25:31;;;;;;;;;;;;;;;-145.06;0.00;60892.56;4683060;29;19923;-89
2022/03/28 10:28:10;;;;;;;;;;;;;;;-145.06;0.00;60892.56;4693278;29;20355;-89
2022/03/28 10:31:06;;;;;;;;;;;;;;;16.98;0.00;60892.56;4692157;29;19915;-89
2022/03/28 10:33:50;;;;;;;;;;;;;;;-145.06;0.00;60892.56;4696078;29;19915;-88
2022/03/28 10:36:34;;;;;;;;;;;;;;;-145.06;0.00;60892.56;4684995;29;19912;-89
2022/03/28 10:39:31;;;;;;;;;;;;;;;-145.06;0.00;60892.56;4697733;29;19951;-89
2022/03/28 10:42:16;;;;;;;;;;;;;;;-145.06;0.00;60892.56;4692188;29;20256;-88
2022/03/28 10:45:00;;;;;;;;;;;;;;;-145.06;0.00;60892.56;4690657;29;19920;-89
2022/03/28 10:47:46;;;;;;;;;;;;;;;-145.06;0.00;60892.56;4682939;29;20371;-88
2022/03/28 10:50:29;;;;;;;;;;;;;;;-145.06;0.00;60892.56;4683580;29;19959;-89
2022/03/28 10:53:12;;;;;;;;;;;;;;;-145.06;0.00;60892.56;4691452;29;19994;-89
2022/03/28 10:55:52;;;;;;;;;;;;;;;-145.06;0.00;60892.56;4690728;29;19998;-88
2022/03/28 10:58:35;;;;;;;;;;;;;;;-145.06;0.00;60892.56;4687761;29;19912;-89
2022/03/28 11:01:15;;;;;;;;;;;;;;;-145.06;0.00;60892.56;4690480;29;19916;-89
2022/03/28 11:03:55;;;;;;;;;;;;;;;-145.06;0.00;60892.56;4685346;29;19920;-88
2022/03/28 11:06:49;;;;;;;;;;;;;;;18.48;0.00;60892.56;4679399;29;19916;-89
2022/03/28 11:09:34;;;;;;;;;;;;;;;-145.06;0.00;60892.56;4684160;29;19915;-89
2022/03/28 11:12:14;;;;;;;;;;;;;;;-145.06;0.00;60892.56;4682742;29;20011;-89
2022/03/28 11:14:55;;;;;;;;;;;;;;;-145.06;0.00;60892.56;4688944;29;20375;-89
2022/03/28 11:17:37;;;;;;;;;;;;;;;-145.06;0.00;60892.56;4690810;29;19915;-89
2022/03/28 11:20:20;;;;;;;;;;;;;;;19.48;0.00;60892.56;4691589;29;19916;-89
2022/03/28 11:23:10;;;;;;;;;;;;;;;19.60;0.00;60892.56;4695141;29;19916;-89
2022/03/28 11:25:51;;;;;;;;;;;;;;;19.74;0.00;60892.56;4708953;29;19924;-90
2022/03/28 11:28:33;;;;;;;;;;;;;;;-145.06;0.00;60892.56;4697860;29;20489;-89
2022/03/28 11:31:15;;;;;;;;;;;;;;;-145.06;0.00;60892.56;4695554;29;20374;-89
2022/03/28 11:33:56;;;;;;;;;;;;;;;-145.06;0.00;60892.56;4690451;29;19920;-88
2022/03/28 11:36:37;;;;;;;;;;;;;;;-145.06;0.00;60892.56;4694080;29;19916;-88
2022/03/28 11:39:21;;;;;;;;;;;;;;;-145.06;0.00;60892.56;4691183;29;20006;-89
2022/03/28 11:42:00;;;;;;;;;;;;;;;-145.06;0.00;60892.56;4697042;29;20010;-89
2022/03/28 11:44:39;;;;;;;;;;;;;;;-145.06;0.00;60892.56;4676439;29;19920;-89
2022/03/28 11:47:19;;;;;;;;;;;;;;;-145.06;0.00;60892.56;4690398;29;19916;-90
2022/03/28 11:49:59;;;;;;;;;;;;;;;-145.06;0.00;60892.56;4696797;29;19916;-88
2022/03/28 11:52:38;;;;;;;;;;;;;;;-145.06;0.00;60892.56;4686375;29;19920;-89
2022/03/28 11:55:18;;;;;;;;;;;;;;;-145.06;0.00;60892.56;4689980;29;19920;-88
2022/03/28 11:58:15;;;;;;;;;;;;;;;-145.06;0.00;60892.56;4692137;29;19923;-89
2022/03/28 12:01:02;;;;;;;;;;;;;;;-145.06;0.00;60892.56;4689151;29;20248;-88
2022/03/28 12:03:48;;;;;;;;;;;;;;;-145.06;0.00;60892.56;4688754;29;19924;-89
2022/03/28 12:06:28;;;;;;;;;;;;;;;-145.06;0.00;60892.56;4690692;29;19947;-90
2022/03/28 12:09:07;;;;;;;;;;;;;;;-145.06;0.00;60892.56;4689163;29;19955;-89
2022/03/28 12:11:48;;;;;;;;;;;;;;;-145.06;0.00;60892.56;4687031;29;19919;-88
2022/03/28 12:14:29;;;;;;;;;;;;;;;-145.06;0.00;60892.56;4689508;29;19920;-89
2022/03/28 12:17:08;;;;;;;;;;;;;;;-145.06;0.00;60892.56;4689234;29;19912;-89
2022/03/28 12:19:47;;;;;;;;;;;;;;;-145.06;0.00;60892.56;4689256;29;19920;-89
2022/03/28 12:22:26;;;;;;;;;;;;;;;-145.06;0.00;60892.56;4689609;29;19916;-89
2022/03/28 12:25:05;;;;;;;;;;;;;;;-145.06;0.00;60892.56;4687753;29;20263;-88
2022/03/28 12:27:50;;;;;;;;;;;;;;;-145.06;0.00;60892.56;4685869;29;20371;-89
2022/03/28 12:30:39;;;;;;;;;;;;;;;-145.06;0.00;60892.56;4689305;29;20435;-89
2022/03/28 12:33:19;;;;;;;;;;;;;;;-145.06;0.00;60892.56;4682977;29;19920;-89
2022/03/28 12:35:58;;;;;;;;;;;;;;;-145.06;0.00;60892.56;4700081;29;20011;-90
2022/03/28 12:38:44;;;;;;;;;;;;;;;-145.06;0.00;60892.56;4695022;29;20465;-89
2022/03/28 12:41:23;;;;;;;;;;;;;;;-145.06;0.00;60892.56;4684709;29;20547;-89
2022/03/28 12:44:02;;;;;;;;;;;;;;;-145.06;0.00;60892.56;4688179;29;19924;-89
2022/03/28 12:46:42;;;;;;;;;;;;;;;-145.06;0.00;60892.56;4673506;29;19912;-89
2022/03/28 12:49:22;;;;;;;;;;;;;;;-145.06;0.00;60892.56;4682611;29;19916;-89
2022/03/28 12:52:08;;;;;;;;;;;;;;;-145.06;0.00;60892.56;4684286;29;20363;-88
2022/03/28 12:54:52;;;;;;;;;;;;;;;-145.06;0.00;60892.56;4688166;29;19916;-88
2022/03/28 12:57:36;;;;;;;;;;;;;;;-145.06;0.00;60892.56;4689734;29;19920;-89
2022/03/28 13:00:22;;;;;;;;;;;;;;;-145.06;0.00;60892.56;4688069;29;20386;-89
2022/03/28 13:03:02;;;;;;;;;;;;;;;-145.06;0.00;60892.56;4687948;29;19920;-89
2022/03/28 13:05:41;;;;;;;;;;;;;;;-145.06;0.00;60892.56;4672383;29;20260;-87
2022/03/28 13:08:31;;;;;;;;;;;;;;;-145.06;0.00;60892.56;4688648;29;20362;-88
2022/03/28 13:11:11;;;;;;;;;;;;;;;-145.06;0.00;60892.56;4688728;29;20089;-89
2022/03/28 13:13:51;;;;;;;;;;;;;;;-145.06;0.00;60892.56;4688908;29;19912;-89
2022/03/28 13:16:31;;;;;;;;;;;;;;;-145.06;0.00;60892.56;4689207;29;19916;-89
2022/03/28 13:19:09;;;;;;;;;;;;;;;-145.06;0.00;60892.56;4685650;29;19916;-89
2022/03/28 13:22:04;;;;;;;;;;;;;;;-145.06;0.00;60892.56;4689619;29;19916;-89
2022/03/28 13:24:43;;;;;;;;;;;;;;;-145.06;0.00;60892.56;4683947;29;19924;-89
2022/03/28 13:30:28;;;;;;;;;;;;;;;-145.06;0.00;60892.56;4695657;29;19947;-90
2022/03/28 13:33:09;;;;;;;;;;;;;;;-145.06;0.00;60892.56;4690050;29;20003;-90
2022/03/28 13:35:49;;;;;;;;;;;;;;;-145.06;0.00;60892.56;4688652;29;19919;-89
2022/03/28 13:38:31;;;;;;;;;;;;;;;-145.06;0.00;60892.56;4685316;29;19916;-90
2022/03/28 13:41:11;;;;;;;;;;;;;;;-145.06;0.00;60892.56;4688627;29;19913;-89
2022/03/28 13:43:50;;;;;;;;;;;;;;;-145.06;0.00;60892.56;4691208;29;19919;-89
2022/03/28 13:46:30;;;;;;;;;;;;;;;-145.06;0.00;60892.56;4698570;29;19920;-88
2022/03/28 13:49:09;;;;;;;;;;;;;;;-145.06;0.00;60892.56;4691469;29;19912;-89